createdAt,value
2023-07-18T00:00:59.011Z,5.50
2023-07-18T00:03:46.840Z,9.18
2023-07-18T00:06:34.790Z,4.82
2023-07-18T00:09:24.004Z,6.85
2023-07-18T00:12:12.224Z,6.05
2023-07-18T00:14:59.807Z,6.72
2023-07-18T00:17:47.579Z,6.35
2023-07-18T00:20:35.220Z,5.28
2023-07-18T00:23:22.701Z,4.45
2023-07-18T00:26:11.853Z,3.47
2023-07-18T00:29:00.026Z,5.10
2023-07-18T00:31:47.691Z,5.13
2023-07-18T00:34:35.404Z,4.45
2023-07-18T00:37:23.910Z,6.65
2023-07-18T00:40:12.812Z,4.80
2023-07-18T00:43:01.989Z,4.47
2023-07-18T00:45:51.667Z,5.68
2023-07-18T00:48:39.557Z,4.13
2023-07-18T00:51:27.576Z,5.03
2023-07-18T00:54:15.949Z,3.60
2023-07-18T00:57:04.150Z,4.68
2023-07-18T00:59:54.006Z,4.05
2023-07-18T01:02:43.163Z,5.10
2023-07-18T01:05:32.200Z,4.25
2023-07-18T01:08:19.983Z,5.38
2023-07-18T01:11:08.539Z,5.43
2023-07-18T01:13:56.201Z,5.53
2023-07-18T01:16:45.259Z,4.22
2023-07-18T01:19:36.422Z,4.55
2023-07-18T01:22:25.382Z,4.63
2023-07-18T01:25:15.436Z,4.20
2023-07-18T01:28:04.321Z,3.47
2023-07-18T01:30:52.032Z,5.60
2023-07-18T01:33:39.878Z,3.63
2023-07-18T01:36:29.853Z,5.65
2023-07-18T01:39:18.804Z,6.95
2023-07-18T01:42:07.233Z,5.28
2023-07-18T01:44:54.734Z,4.25
2023-07-18T01:47:42.730Z,5.63
2023-07-18T01:50:30.600Z,7.07
2023-07-18T01:53:17.908Z,5.57
2023-07-18T01:56:07.394Z,6.70
2023-07-18T01:58:54.900Z,4.53
2023-07-18T02:01:42.645Z,6.55
2023-07-18T02:04:30.126Z,5.60
2023-07-18T02:07:17.588Z,5.45
2023-07-18T02:10:05.942Z,6.25
2023-07-18T02:12:57.915Z,6.53
2023-07-18T02:15:45.931Z,4.75
2023-07-18T02:18:33.566Z,7.03
2023-07-18T02:21:21.287Z,3.10
2023-07-18T02:24:09.425Z,5.78
2023-07-18T02:26:57.031Z,4.38
2023-07-18T02:29:47.873Z,3.35
2023-07-18T02:32:35.460Z,4.95
2023-07-18T02:35:23.595Z,5.32
2023-07-18T02:38:11.129Z,4.55
2023-07-18T02:40:58.594Z,5.05
2023-07-18T02:43:46.446Z,5.40
2023-07-18T02:46:35.859Z,5.68
2023-07-18T02:49:23.538Z,6.68
2023-07-18T02:52:11.025Z,5.50
2023-07-18T02:54:58.637Z,5.63
2023-07-18T02:57:46.331Z,5.97
2023-07-18T03:00:34.915Z,4.75
2023-07-18T03:03:24.175Z,5.85
2023-07-18T03:06:11.747Z,6.30
2023-07-18T03:08:59.589Z,7.75
2023-07-18T03:11:47.520Z,4.20
2023-07-18T03:14:35.949Z,5.28
2023-07-18T03:17:24.489Z,8.38
2023-07-18T03:20:18.453Z,5.10
2023-07-18T03:23:06.373Z,7.30
2023-07-18T03:25:53.944Z,3.78
2023-07-18T03:28:41.976Z,5.80
2023-07-18T03:31:29.608Z,4.63
2023-07-18T03:34:17.092Z,7.47
2023-07-18T03:37:08.722Z,6.13
2023-07-18T03:39:57.633Z,6.85
2023-07-18T03:42:45.611Z,5.75
2023-07-18T03:45:33.396Z,6.95
2023-07-18T03:48:20.869Z,8.25
2023-07-18T03:51:09.630Z,7.47
2023-07-18T03:53:58.880Z,5.30
2023-07-18T03:56:46.979Z,5.00
2023-07-18T03:59:34.694Z,6.20
2023-07-18T04:02:22.434Z,5.72
2023-07-18T04:05:11.529Z,5.03
2023-07-18T04:07:59.577Z,5.15
2023-07-18T04:10:48.532Z,6.22
2023-07-18T04:13:36.205Z,5.43
2023-07-18T04:16:25.698Z,6.22
2023-07-18T04:19:15.031Z,6.15
2023-07-18T04:22:02.591Z,7.38
2023-07-18T04:24:50.007Z,5.70
2023-07-18T04:27:39.081Z,7.65
2023-07-18T04:30:26.752Z,6.22
2023-07-18T04:33:14.318Z,7.50
2023-07-18T04:36:02.168Z,5.95
2023-07-18T04:38:49.898Z,5.35
2023-07-18T04:41:53.536Z,7.22
2023-07-18T04:44:44.516Z,5.50
2023-07-18T04:47:32.397Z,6.18
2023-07-18T04:50:20.870Z,6.03
2023-07-18T04:53:09.849Z,5.90
2023-07-18T04:55:57.676Z,4.95
2023-07-18T04:58:45.551Z,8.73
2023-07-18T05:01:34.619Z,5.03
2023-07-18T05:04:22.168Z,4.75
2023-07-18T05:07:09.935Z,5.18
2023-07-18T05:09:57.543Z,6.93
2023-07-18T05:12:45.589Z,5.72
2023-07-18T05:15:33.003Z,5.43
2023-07-18T05:18:22.328Z,9.18
2023-07-18T05:21:10.667Z,6.82
2023-07-18T05:23:58.154Z,5.15
2023-07-18T05:26:47.085Z,5.10
2023-07-18T05:29:34.723Z,4.90
2023-07-18T05:32:22.409Z,4.18
2023-07-18T05:35:12.748Z,4.28
2023-07-18T05:37:59.982Z,4.93
2023-07-18T05:40:47.522Z,6.60
2023-07-18T05:43:35.060Z,5.00
2023-07-18T05:46:22.689Z,5.35
2023-07-18T05:49:10.607Z,5.28
2023-07-18T05:51:59.829Z,4.75
2023-07-18T05:54:47.676Z,4.95
2023-07-18T05:57:35.211Z,5.97
2023-07-18T06:00:23.230Z,3.67
2023-07-18T06:03:10.917Z,5.10
2023-07-18T06:05:58.824Z,4.20
2023-07-18T06:08:47.629Z,4.20
2023-07-18T06:11:35.531Z,5.50
2023-07-18T06:14:23.198Z,4.68
2023-07-18T06:17:11.139Z,4.40
2023-07-18T06:19:58.963Z,4.10
2023-07-18T06:22:48.444Z,3.50
2023-07-18T06:25:37.930Z,3.33
2023-07-18T06:28:25.470Z,3.92
2023-07-18T06:31:13.398Z,4.93
2023-07-18T06:34:01.047Z,4.32
2023-07-18T06:36:48.977Z,3.83
2023-07-18T06:39:37.736Z,5.05
2023-07-18T06:42:27.183Z,2.92
2023-07-18T06:45:15.910Z,5.15
2023-07-18T06:48:03.927Z,3.22
2023-07-18T06:50:54.110Z,3.03
2023-07-18T06:53:41.649Z,2.88
2023-07-18T06:56:29.279Z,2.83
2023-07-18T06:59:18.598Z,3.45
2023-07-18T07:02:06.882Z,3.67
2023-07-18T07:04:57.201Z,3.65
2023-07-18T07:07:44.809Z,3.30
2023-07-18T07:10:32.432Z,2.67
2023-07-18T07:13:20.636Z,3.03
2023-07-18T07:16:09.784Z,4.97
2023-07-18T07:18:59.555Z,2.55
2023-07-18T07:21:51.209Z,4.43
2023-07-18T07:24:38.754Z,3.35
2023-07-18T07:27:26.708Z,3.65
2023-07-18T07:30:16.935Z,3.65
2023-07-18T07:33:07.266Z,3.72
2023-07-18T07:35:54.616Z,5.57
2023-07-18T07:38:42.186Z,4.45
2023-07-18T07:41:30.007Z,4.75
2023-07-18T07:44:17.431Z,3.63
2023-07-18T07:47:05.017Z,2.53
2023-07-18T07:49:54.056Z,3.80
2023-07-18T07:52:42.116Z,5.10
2023-07-18T07:55:30.180Z,2.85
2023-07-18T07:58:17.708Z,2.72
2023-07-18T08:01:05.419Z,3.28
2023-07-18T08:03:52.932Z,4.38
2023-07-18T08:06:41.735Z,2.15
2023-07-18T08:09:29.188Z,2.78
2023-07-18T08:12:17.268Z,2.65
2023-07-18T08:15:05.931Z,2.95
2023-07-18T08:17:54.078Z,4.43
2023-07-18T08:20:42.037Z,2.50
2023-07-18T08:23:30.783Z,3.03
2023-07-18T08:26:19.617Z,2.70
2023-07-18T08:29:18.035Z,2.45
2023-07-18T08:32:07.701Z,4.97
2023-07-18T08:34:55.829Z,3.58
2023-07-18T08:37:43.193Z,2.35
2023-07-18T08:40:33.478Z,7.97
2023-07-18T08:43:21.369Z,1.70
2023-07-18T08:46:09.977Z,2.88
2023-07-18T08:48:58.200Z,2.25
2023-07-18T08:51:46.680Z,2.00
2023-07-18T08:54:35.066Z,2.38
2023-07-18T08:57:25.789Z,2.10
2023-07-18T09:00:15.999Z,1.98
2023-07-18T09:03:03.445Z,3.28
2023-07-18T09:05:52.435Z,2.85
2023-07-18T09:08:44.114Z,4.07
2023-07-18T09:11:31.444Z,2.42
2023-07-18T09:14:26.805Z,2.00
2023-07-18T09:17:14.478Z,3.55
2023-07-18T09:20:09.314Z,2.60
2023-07-18T09:22:58.000Z,3.60
2023-07-18T09:25:45.873Z,4.32
2023-07-18T09:28:34.533Z,1.40
2023-07-18T09:31:25.983Z,2.55
2023-07-18T09:34:14.795Z,1.90
2023-07-18T09:37:07.201Z,3.67
2023-07-18T09:39:55.551Z,1.67
2023-07-18T09:42:47.328Z,4.25
2023-07-18T09:45:51.334Z,2.03
2023-07-18T09:51:34.442Z,1.75
2023-07-18T09:54:23.237Z,2.60
2023-07-18T09:57:11.830Z,1.55
2023-07-18T10:00:04.967Z,3.85
2023-07-18T10:02:58.123Z,2.50
2023-07-18T10:05:47.640Z,1.70
2023-07-18T10:08:35.734Z,4.78
2023-07-18T10:11:23.466Z,2.42
2023-07-18T10:14:15.115Z,2.53
2023-07-18T10:17:07.527Z,2.15
2023-07-18T10:19:57.750Z,2.53
2023-07-18T10:22:50.869Z,1.85
2023-07-18T10:25:39.356Z,1.55
2023-07-18T10:28:43.822Z,2.08
2023-07-18T10:31:33.031Z,1.77
2023-07-18T10:34:20.556Z,1.92
2023-07-18T10:37:09.484Z,1.92
2023-07-18T10:39:59.309Z,1.52
2023-07-18T10:42:48.707Z,1.63
2023-07-18T10:45:40.770Z,1.83
2023-07-18T10:48:31.685Z,3.05
2023-07-18T10:51:20.028Z,2.30
2023-07-18T10:54:07.953Z,1.65
2023-07-18T10:56:57.218Z,2.38
2023-07-18T10:59:45.892Z,2.45
2023-07-18T11:02:38.251Z,3.30
2023-07-18T11:05:27.842Z,3.55
2023-07-18T11:08:24.793Z,5.30
2023-07-18T11:11:12.606Z,3.38
2023-07-18T11:14:01.545Z,2.33
2023-07-18T11:16:49.239Z,1.77
2023-07-18T11:19:37.168Z,3.60
2023-07-18T11:22:24.810Z,1.73
2023-07-18T11:25:12.759Z,1.25
2023-07-18T11:28:05.276Z,2.05
2023-07-18T11:30:54.401Z,2.38
2023-07-18T11:33:42.852Z,1.63
2023-07-18T11:36:31.785Z,2.58
2023-07-18T11:39:21.870Z,3.00
2023-07-18T11:42:10.158Z,2.60
2023-07-18T11:44:58.229Z,2.25
2023-07-18T11:47:48.937Z,1.77
2023-07-18T11:50:36.556Z,2.35
2023-07-18T11:53:28.278Z,2.03
2023-07-18T11:56:15.807Z,2.33
2023-07-18T11:59:03.936Z,1.65
2023-07-18T12:01:51.634Z,2.33
2023-07-18T12:04:40.724Z,2.63
2023-07-18T12:07:28.748Z,1.90
2023-07-18T12:10:17.147Z,2.53
2023-07-18T12:13:04.646Z,3.58
2023-07-18T12:15:52.156Z,3.65
2023-07-18T12:18:40.122Z,2.72
2023-07-18T12:21:29.366Z,1.77
2023-07-18T12:24:17.055Z,1.70
2023-07-18T12:27:05.657Z,1.42
2023-07-18T12:29:53.075Z,1.30
2023-07-18T12:32:40.910Z,2.97
2023-07-18T12:35:28.605Z,3.90
2023-07-18T12:38:17.725Z,6.95
2023-07-18T12:41:05.181Z,8.73
2023-07-18T12:43:52.827Z,1.33
2023-07-18T12:46:40.449Z,1.98
2023-07-18T12:52:18.435Z,1.88
2023-07-18T12:55:08.835Z,2.65
2023-07-18T12:57:56.656Z,3.17
2023-07-18T13:00:44.385Z,2.35
2023-07-18T13:03:34.184Z,1.38
2023-07-18T13:06:22.462Z,1.42
2023-07-18T13:09:10.903Z,1.85
2023-07-18T13:12:00.286Z,2.30
2023-07-18T13:14:47.879Z,2.40
2023-07-18T13:17:35.769Z,1.40
2023-07-18T13:20:23.726Z,1.52
2023-07-18T13:23:11.710Z,2.42
2023-07-18T13:25:59.737Z,1.55
2023-07-18T13:28:48.596Z,2.00
2023-07-18T13:31:36.741Z,2.88
2023-07-18T13:34:24.411Z,1.65
2023-07-18T13:37:12.203Z,2.88
2023-07-18T13:39:59.968Z,1.73
2023-07-18T13:42:50.457Z,2.45
2023-07-18T13:45:39.310Z,1.60
2023-07-18T13:48:27.217Z,2.75
2023-07-18T13:51:15.070Z,1.95
2023-07-18T13:54:03.958Z,1.50
2023-07-18T13:56:51.634Z,2.40
2023-07-18T13:59:39.388Z,1.50
2023-07-18T14:02:28.813Z,1.48
2023-07-18T14:05:16.463Z,2.13
2023-07-18T14:08:03.978Z,2.00
2023-07-18T14:10:51.578Z,1.90
2023-07-18T14:13:43.857Z,2.65
2023-07-18T14:16:31.539Z,3.25
2023-07-18T14:19:20.767Z,1.52
2023-07-18T14:22:08.471Z,2.30
2023-07-18T14:24:56.204Z,3.85
2023-07-18T14:27:44.037Z,3.28
2023-07-18T14:30:31.729Z,1.08
2023-07-18T14:33:19.325Z,4.05
2023-07-18T14:36:08.785Z,1.63
2023-07-18T14:38:56.661Z,1.52
2023-07-18T14:41:43.956Z,1.48
2023-07-18T14:44:31.546Z,1.70
2023-07-18T14:47:19.552Z,2.50
2023-07-18T14:50:07.858Z,3.55
2023-07-18T14:52:56.721Z,2.13
2023-07-18T14:55:44.398Z,3.00
2023-07-18T14:58:32.260Z,2.03
2023-07-18T15:01:20.087Z,3.75
2023-07-18T15:04:07.716Z,2.63
2023-07-18T15:06:57.771Z,3.15
2023-07-18T15:09:47.743Z,1.65
2023-07-18T15:12:39.428Z,2.15
2023-07-18T15:15:27.588Z,2.20
2023-07-18T15:18:16.627Z,2.45
2023-07-18T15:21:04.687Z,2.15
2023-07-18T15:23:52.150Z,1.58
2023-07-18T15:26:42.509Z,1.42
2023-07-18T15:29:30.395Z,3.40
2023-07-18T15:32:18.349Z,2.35
2023-07-18T15:35:06.979Z,2.60
2023-07-18T15:37:54.707Z,1.20
2023-07-18T15:40:42.327Z,3.30
2023-07-18T15:43:31.368Z,1.70
2023-07-18T15:46:19.948Z,1.45
2023-07-18T15:49:08.068Z,1.73
2023-07-18T15:51:56.134Z,1.67
2023-07-18T15:54:44.532Z,3.40
2023-07-18T15:57:31.970Z,1.83
2023-07-18T16:00:21.252Z,1.98
2023-07-18T16:03:09.034Z,3.20
2023-07-18T16:05:56.882Z,1.25
2023-07-18T16:08:44.812Z,2.65
2023-07-18T16:11:32.662Z,2.97
2023-07-18T16:14:20.431Z,3.63
2023-07-18T16:17:10.533Z,5.70
2023-07-18T16:19:58.828Z,3.08
2023-07-18T16:22:52.051Z,2.22
2023-07-18T16:25:39.559Z,1.95
2023-07-18T16:28:27.012Z,2.78
2023-07-18T16:31:14.983Z,2.35
2023-07-18T16:34:04.359Z,3.33
2023-07-18T16:36:52.257Z,2.17
2023-07-18T16:39:39.879Z,2.35
2023-07-18T16:42:27.725Z,7.38
2023-07-18T16:45:15.298Z,5.40
2023-07-18T16:48:04.601Z,3.58
2023-07-18T16:50:53.625Z,2.85
2023-07-18T16:53:41.362Z,3.00
2023-07-18T16:56:29.330Z,4.97
2023-07-18T16:59:16.838Z,2.53
2023-07-18T17:02:06.327Z,2.88
2023-07-18T17:04:54.244Z,3.15
2023-07-18T17:07:43.018Z,2.30
2023-07-18T17:10:31.114Z,2.15
2023-07-18T17:13:20.111Z,2.88
2023-07-18T17:16:07.685Z,2.58
2023-07-18T17:18:55.547Z,1.50
2023-07-18T17:21:43.412Z,1.83
2023-07-18T17:24:32.319Z,2.08
2023-07-18T17:27:20.099Z,3.80
2023-07-18T17:30:08.924Z,2.50
2023-07-18T17:32:56.927Z,1.63
2023-07-18T17:35:44.829Z,1.30
2023-07-18T17:38:34.344Z,3.03
2023-07-18T17:41:23.720Z,1.20
2023-07-18T17:44:11.996Z,3.53
2023-07-18T17:47:00.111Z,2.72
2023-07-18T17:49:47.625Z,3.15
2023-07-18T17:52:36.453Z,3.08
2023-07-18T17:55:24.269Z,1.90
2023-07-18T17:58:13.416Z,2.15
2023-07-18T18:01:01.242Z,1.98
2023-07-18T18:03:48.678Z,1.92
2023-07-18T18:06:36.450Z,1.60
2023-07-18T18:09:24.194Z,2.25
2023-07-18T18:12:12.176Z,2.00
2023-07-18T18:15:00.885Z,1.63
2023-07-18T18:17:49.090Z,1.80
2023-07-18T18:20:40.245Z,1.83
2023-07-18T18:23:38.506Z,3.03
2023-07-18T18:26:27.595Z,1.80
2023-07-18T18:29:16.357Z,3.72
2023-07-18T18:32:06.942Z,1.90
2023-07-18T18:35:06.404Z,2.13
2023-07-18T18:37:55.989Z,3.13
2023-07-18T18:40:44.903Z,2.67
2023-07-18T18:43:32.686Z,3.25
2023-07-18T18:46:20.979Z,2.80
2023-07-18T18:49:21.276Z,2.22
2023-07-18T18:52:12.934Z,1.88
2023-07-18T18:55:17.136Z,2.05
2023-07-18T18:58:05.542Z,3.83
2023-07-18T19:00:53.870Z,3.65
2023-07-18T19:03:41.534Z,2.97
2023-07-18T19:06:30.949Z,4.70
2023-07-18T19:09:19.447Z,2.50
2023-07-18T19:12:08.128Z,3.58
2023-07-18T19:14:58.249Z,2.65
2023-07-18T19:17:46.251Z,3.83
2023-07-18T19:20:33.913Z,4.55
2023-07-18T19:23:22.702Z,8.30
2023-07-18T19:26:10.790Z,10.93
2023-07-18T19:28:58.428Z,7.57
2023-07-18T19:31:46.239Z,8.60
2023-07-18T19:34:35.608Z,8.73
2023-07-18T19:37:26.076Z,5.55
2023-07-18T19:40:16.827Z,6.38
2023-07-18T19:43:04.704Z,4.97
2023-07-18T19:45:52.398Z,5.75
2023-07-18T19:48:39.907Z,6.90
2023-07-18T19:51:27.655Z,3.55
2023-07-18T19:54:15.508Z,3.58
2023-07-18T19:57:04.812Z,2.72
2023-07-18T19:59:52.682Z,6.55
2023-07-18T20:02:41.850Z,2.85
2023-07-18T20:05:29.585Z,4.28
2023-07-18T20:08:17.164Z,3.22
2023-07-18T20:11:05.043Z,5.20
2023-07-18T20:13:54.865Z,4.20
2023-07-18T20:16:43.588Z,4.57
2023-07-18T20:19:31.196Z,6.00
2023-07-18T20:22:23.734Z,5.90
2023-07-18T20:25:11.840Z,6.03
2023-07-18T20:27:59.917Z,5.00
2023-07-18T20:30:49.702Z,3.38
2023-07-18T20:33:37.399Z,3.63
2023-07-18T20:36:25.269Z,3.50
2023-07-18T20:39:12.945Z,2.97
2023-07-18T20:42:00.930Z,2.60
2023-07-18T20:44:48.829Z,3.78
2023-07-18T20:47:37.728Z,5.18
2023-07-18T20:50:25.238Z,4.25
2023-07-18T20:53:12.785Z,6.70
2023-07-18T20:56:00.307Z,4.35
2023-07-18T20:58:48.316Z,4.57
2023-07-18T21:01:36.290Z,5.38
2023-07-18T21:04:25.317Z,5.68
2023-07-18T21:07:12.806Z,5.35
2023-07-18T21:10:00.217Z,7.03
2023-07-18T21:12:48.402Z,3.92
2023-07-18T21:15:36.338Z,4.75
2023-07-18T21:18:23.896Z,4.85
2023-07-18T21:21:12.575Z,4.40
2023-07-18T21:24:00.866Z,3.10
2023-07-18T21:26:48.363Z,4.70
2023-07-18T21:29:35.867Z,4.32
2023-07-18T21:32:23.626Z,5.05
2023-07-18T21:35:11.636Z,3.85
2023-07-18T21:38:00.677Z,3.95
2023-07-18T21:40:48.531Z,3.28
2023-07-18T21:43:36.583Z,3.83
2023-07-18T21:46:24.170Z,4.75
2023-07-18T21:49:11.928Z,3.60
2023-07-18T21:51:59.437Z,4.63
2023-07-18T21:54:48.457Z,4.85
2023-07-18T21:57:36.404Z,3.78
2023-07-18T22:00:24.213Z,3.90
2023-07-18T22:03:12.115Z,5.32
2023-07-18T22:06:00.173Z,5.68
2023-07-18T22:08:48.146Z,3.83
2023-07-18T22:11:37.422Z,3.53
2023-07-18T22:14:24.853Z,3.85
2023-07-18T22:17:12.410Z,5.57
2023-07-18T22:20:00.176Z,4.88
2023-07-18T22:22:47.648Z,4.03
2023-07-18T22:25:35.177Z,4.32
2023-07-18T22:28:24.180Z,4.75
2023-07-18T22:31:13.096Z,5.82
2023-07-18T22:34:00.936Z,4.63
2023-07-18T22:36:48.349Z,3.75
2023-07-18T22:39:39.624Z,4.43
2023-07-18T22:42:28.755Z,3.22
2023-07-18T22:45:17.704Z,4.18
2023-07-18T22:48:05.583Z,3.25
2023-07-18T22:50:53.434Z,3.33
2023-07-18T22:53:41.211Z,2.83
2023-07-18T22:56:28.464Z,5.13
2023-07-18T22:59:15.919Z,4.20
2023-07-18T23:02:05.466Z,4.18
2023-07-18T23:04:53.691Z,3.90
2023-07-18T23:07:42.346Z,4.80
2023-07-18T23:10:30.077Z,5.43
2023-07-18T23:13:17.893Z,4.63
2023-07-18T23:16:06.276Z,4.13
2023-07-18T23:18:55.007Z,4.45
2023-07-18T23:21:42.819Z,3.90
2023-07-18T23:24:30.536Z,4.07
2023-07-18T23:27:18.373Z,4.38
2023-07-18T23:30:06.692Z,3.85
2023-07-18T23:32:54.358Z,3.17
2023-07-18T23:35:43.282Z,3.47
2023-07-18T23:38:31.113Z,3.28
2023-07-18T23:41:19.142Z,4.22
2023-07-18T23:44:07.397Z,4.07
2023-07-18T23:46:55.887Z,3.85
2023-07-18T23:49:43.641Z,4.90
2023-07-18T23:52:32.836Z,3.80
2023-07-18T23:55:20.627Z,3.20
2023-07-18T23:58:08.376Z,3.15
